Time,TemperatureF,DewpointF,PressureIn,WindDirection,WindDirectionDegrees,WindSpeedMPH,WindSpeedGustMPH,Humidity,HourlyPrecipIn,Conditions,Clouds,dailyrainin,SoftwareType,DateUTC
2013-08-23 00:04:00,71.1,66.7,29.99,NW,319,0.0,0.0,86,0.00,NA,NA,-99.99,VWS Version 10.38,2013-08-23 04:04:00,
2013-08-23 00:09:00,70.9,66.5,29.99,NW,319,0.0,0.0,86,0.00,NA,NA,-99.99,VWS Version 10.38,2013-08-23 04:09:00,
2013-08-23 00:14:00,70.9,66.5,29.99,NW,319,0.0,0.0,86,0.00,NA,NA,-99.99,VWS Version 10.38,2013-08-23 04:14:00,
2013-08-23 00:19:00,70.9,66.5,29.99,NW,319,0.0,0.0,86,0.00,NA,NA,-99.99,VWS Version 10.38,2013-08-23 04:19:00,
2013-08-23 00:24:00,70.9,66.8,29.99,NNW,327,0.0,0.0,87,0.00,NA,NA,-99.99,VWS Version 10.38,2013-08-23 04:24:00,
2013-08-23 00:34:00,70.9,66.8,29.99,NNW,327,0.0,0.0,87,0.00,NA,NA,-99.99,VWS Version 10.38,2013-08-23 04:34:00,
2013-08-23 00:39:00,70.9,66.8,29.99,NNW,327,0.0,0.0,87,0.00,NA,NA,-99.99,VWS Version 10.38,2013-08-23 04:39:00,
2013-08-23 00:44:00,70.9,66.8,29.99,NNW,327,0.0,0.0,87,0.00,NA,NA,-99.99,VWS Version 10.38,2013-08-23 04:44:00,
2013-08-23 00:49:00,70.9,66.8,29.99,NNW,327,0.0,0.0,87,0.00,NA,NA,-99.99,VWS Version 10.38,2013-08-23 04:49:00,
2013-08-23 00:59:00,70.7,66.7,29.99,NNW,327,0.0,0.0,87,0.00,NA,NA,-99.99,VWS Version 10.38,2013-08-23 04:59:00,
2013-08-23 01:04:00,70.7,66.7,29.99,NNW,327,0.0,0.0,87,0.00,NA,NA,-99.99,VWS Version 10.38,2013-08-23 05:04:00,
2013-08-23 01:09:00,70.5,66.5,29.99,NNW,327,0.0,0.0,87,0.00,NA,NA,-99.99,VWS Version 10.38,2013-08-23 05:09:00,
2013-08-23 01:14:00,70.3,66.0,29.99,NNW,327,0.0,0.0,86,0.00,NA,NA,-99.99,VWS Version 10.38,2013-08-23 05:14:00,
2013-08-23 01:19:00,70.0,65.6,29.99,NNW,327,0.0,0.0,86,0.00,NA,NA,-99.99,VWS Version 10.38,2013-08-23 05:19:00,
2013-08-23 01:24:00,69.8,65.4,29.99,NNW,327,0.0,0.0,86,0.00,NA,NA,-99.99,VWS Version 10.38,2013-08-23 05:24:00,
2013-08-23 01:29:00,69.6,65.2,29.99,NNW,327,0.0,0.0,86,0.00,NA,NA,-99.99,VWS Version 10.38,2013-08-23 05:29:00,
2013-08-23 01:34:00,69.4,65.4,29.99,NNW,327,0.0,0.0,87,0.00,NA,NA,-99.99,VWS Version 10.38,2013-08-23 05:34:00,
2013-08-23 01:44:00,69.1,65.1,29.99,NNW,327,0.0,0.0,87,0.00,NA,NA,-99.99,VWS Version 10.38,2013-08-23 05:44:00,
2013-08-23 01:49:00,68.9,64.6,29.99,NNW,327,0.0,0.0,86,0.00,NA,NA,-99.99,VWS Version 10.38,2013-08-23 05:49:00,
2013-08-23 01:54:00,68.7,64.4,29.99,NNW,327,0.0,0.0,86,0.00,NA,NA,-99.99,VWS Version 10.38,2013-08-23 05:54:00,
2013-08-23 01:59:00,68.5,64.5,29.99,NNW,327,0.0,0.0,87,0.00,NA,NA,-99.99,VWS Version 10.38,2013-08-23 05:59:00,
2013-08-23 02:04:00,68.5,64.5,29.99,NNW,327,0.0,0.0,87,0.00,NA,NA,-99.99,VWS Version 10.38,2013-08-23 06:04:00,
2013-08-23 02:14:00,68.4,64.3,29.99,NNW,327,0.0,0.0,87,0.00,NA,NA,-99.99,VWS Version 10.38,2013-08-23 06:14:00,
2013-08-23 02:19:00,68.4,64.3,29.99,NNW,327,0.0,0.0,87,0.00,NA,NA,-99.99,VWS Version 10.38,2013-08-23 06:19:00,
2013-08-23 02:24:00,68.2,64.2,29.99,NNW,327,0.0,0.0,87,0.00,NA,NA,-99.99,VWS Version 10.38,2013-08-23 06:24:00,
2013-08-23 02:29:00,68.0,64.0,29.99,NNW,327,0.0,0.0,87,0.00,NA,NA,-99.99,VWS Version 10.38,2013-08-23 06:29:00,
2013-08-23 02:34:00,67.8,63.8,29.99,NNW,327,0.0,0.0,87,0.00,NA,NA,-99.99,VWS Version 10.38,2013-08-23 06:34:00,
2013-08-23 02:39:00,67.6,63.6,29.99,NNW,327,0.0,0.0,87,0.00,NA,NA,-99.99,VWS Version 10.38,2013-08-23 06:39:00,
2013-08-23 02:49:00,67.5,63.5,29.99,NNW,327,0.0,0.0,87,0.00,NA,NA,-99.99,VWS Version 10.38,2013-08-23 06:49:00,
2013-08-23 02:54:00,67.3,63.6,29.99,NNW,327,0.0,0.0,88,0.00,NA,NA,-99.99,VWS Version 10.38,2013-08-23 06:54:00,
2013-08-23 02:59:00,67.3,63.6,29.99,NNW,327,0.0,0.0,88,0.00,NA,NA,-99.99,VWS Version 10.38,2013-08-23 06:59:00,
2013-08-23 03:04:00,67.1,63.4,29.99,NNW,327,0.0,0.0,88,0.00,NA,NA,-99.99,VWS Version 10.38,2013-08-23 07:04:00,
2013-08-23 03:09:00,67.1,63.4,29.99,NNW,327,0.0,0.0,88,0.00,NA,NA,-99.99,VWS Version 10.38,2013-08-23 07:09:00,
2013-08-23 03:14:00,67.1,63.4,29.99,NNW,327,0.0,0.0,88,0.00,NA,NA,-99.99,VWS Version 10.38,2013-08-23 07:14:00,
2013-08-23 03:24:00,67.3,63.6,29.99,NNW,327,0.0,0.0,88,0.00,NA,NA,-99.99,VWS Version 10.38,2013-08-23 07:24:00,
2013-08-23 03:29:00,67.3,63.9,29.99,NNW,327,0.0,0.0,89,0.00,NA,NA,-99.99,VWS Version 10.38,2013-08-23 07:29:00,
2013-08-23 03:34:00,67.3,63.9,29.99,NNW,327,0.0,0.0,89,0.00,NA,NA,-99.99,VWS Version 10.38,2013-08-23 07:34:00,
2013-08-23 03:39:00,67.5,64.1,29.99,SSE,155,0.0,0.0,89,0.00,NA,NA,-99.99,VWS Version 10.38,2013-08-23 07:39:00,
2013-08-23 03:44:00,67.6,64.3,29.99,SSE,155,0.0,0.0,89,0.00,NA,NA,-99.99,VWS Version 10.38,2013-08-23 07:44:00,
2013-08-23 03:49:00,67.6,64.3,29.99,SE,141,0.0,0.0,89,0.00,NA,NA,-99.99,VWS Version 10.38,2013-08-23 07:49:00,
2013-08-23 03:59:00,67.8,64.5,29.99,West,268,0.0,0.0,89,0.00,NA,NA,-99.99,VWS Version 10.38,2013-08-23 07:59:00,
2013-08-23 04:09:00,67.8,64.5,29.99,SW,219,0.0,0.0,89,0.00,NA,NA,-99.99,VWS Version 10.38,2013-08-23 08:09:00,
2013-08-23 04:14:00,68.0,64.6,29.99,WNW,287,0.0,0.0,89,0.00,NA,NA,-99.99,VWS Version 10.38,2013-08-23 08:14:00,
2013-08-23 04:24:00,68.0,64.6,29.99,WNW,289,0.0,0.0,89,0.00,NA,NA,-99.99,VWS Version 10.38,2013-08-23 08:24:00,
2013-08-23 04:29:00,68.0,64.6,29.99,SSW,196,0.0,0.0,89,0.00,NA,NA,-99.99,VWS Version 10.38,2013-08-23 08:29:00,
2013-08-23 04:34:00,68.0,64.6,29.99,WSW,249,0.0,0.0,89,0.00,NA,NA,-99.99,VWS Version 10.38,2013-08-23 08:34:00,
2013-08-23 04:39:00,68.0,64.6,29.99,WSW,250,3.1,3.1,89,0.00,NA,NA,-99.99,VWS Version 10.38,2013-08-23 08:39:00,
2013-08-23 04:44:00,68.0,64.6,29.99,WNW,295,0.0,0.0,89,0.00,NA,NA,-99.99,VWS Version 10.38,2013-08-23 08:44:00,
2013-08-23 04:49:00,68.0,64.6,29.99,WNW,295,0.0,0.0,89,0.00,NA,NA,-99.99,VWS Version 10.38,2013-08-23 08:49:00,
2013-08-23 04:54:00,68.0,64.6,29.99,WNW,295,0.0,0.0,89,0.00,NA,NA,-99.99,VWS Version 10.38,2013-08-23 08:54:00,
2013-08-23 05:04:00,68.0,64.6,29.99,WSW,246,0.0,0.0,89,0.00,NA,NA,-99.99,VWS Version 10.38,2013-08-23 09:04:00,
2013-08-23 05:09:00,68.0,64.6,29.99,SSE,154,0.0,0.0,89,0.00,NA,NA,-99.99,VWS Version 10.38,2013-08-23 09:09:00,
2013-08-23 05:14:00,67.8,64.5,29.99,WSW,239,0.0,0.0,89,0.00,NA,NA,-99.99,VWS Version 10.38,2013-08-23 09:14:00,
2013-08-23 05:19:00,67.8,64.5,29.99,SW,235,0.0,0.0,89,0.00,NA,NA,-99.99,VWS Version 10.38,2013-08-23 09:19:00,
2013-08-23 05:24:00,67.6,64.3,29.99,SW,235,0.0,0.0,89,0.00,NA,NA,-99.99,VWS Version 10.38,2013-08-23 09:24:00,
2013-08-23 05:29:00,67.5,64.1,29.99,SW,235,0.0,0.0,89,0.00,NA,NA,-99.99,VWS Version 10.38,2013-08-23 09:29:00,
2013-08-23 05:39:00,67.3,63.9,29.99,SW,235,0.0,0.0,89,0.00,NA,NA,-99.99,VWS Version 10.38,2013-08-23 09:39:00,
2013-08-23 05:44:00,67.1,63.8,30.02,SW,235,0.0,0.0,89,0.00,NA,NA,-99.99,VWS Version 10.38,2013-08-23 09:44:00,
2013-08-23 05:49:00,66.9,63.6,30.02,SW,235,0.0,0.0,89,0.00,NA,NA,-99.99,VWS Version 10.38,2013-08-23 09:49:00,
2013-08-23 05:54:00,66.7,63.4,30.02,SW,229,0.0,0.0,89,0.00,NA,NA,-99.99,VWS Version 10.38,2013-08-23 09:54:00,
2013-08-23 05:59:00,66.6,63.2,30.02,SSW,203,0.0,0.0,89,0.00,NA,NA,-99.99,VWS Version 10.38,2013-08-23 09:59:00,
2013-08-23 06:04:00,66.4,63.0,30.02,SSW,203,0.0,0.0,89,0.00,NA,NA,-99.99,VWS Version 10.38,2013-08-23 10:04:00,
2013-08-23 06:14:00,66.0,62.7,30.02,SSW,203,0.0,0.0,89,0.00,NA,NA,-99.99,VWS Version 10.38,2013-08-23 10:14:00,
2013-08-23 06:19:00,65.8,62.5,30.02,SW,234,0.0,0.0,89,0.00,NA,NA,-99.99,VWS Version 10.38,2013-08-23 10:19:00,
2013-08-23 06:24:00,66.0,62.7,30.02,SW,235,0.0,0.0,89,0.00,NA,NA,-99.99,VWS Version 10.38,2013-08-23 10:24:00,
2013-08-23 06:30:00,66.0,62.7,30.02,WSW,242,0.0,0.0,89,0.00,NA,NA,-99.99,VWS Version 10.38,2013-08-23 10:30:00,
2013-08-23 06:40:00,66.0,62.7,30.02,WSW,242,0.0,0.0,89,0.00,NA,NA,-99.99,VWS Version 10.38,2013-08-23 10:40:00,
2013-08-23 06:50:00,66.2,62.9,30.02,WSW,242,0.0,0.0,89,0.00,NA,NA,-99.99,VWS Version 10.38,2013-08-23 10:50:00,
2013-08-23 06:55:00,66.2,62.9,30.05,WSW,242,0.0,0.0,89,0.00,NA,NA,-99.99,VWS Version 10.38,2013-08-23 10:55:00,
2013-08-23 07:00:00,66.2,62.9,30.05,WSW,242,0.0,0.0,89,0.00,NA,NA,-99.99,VWS Version 10.38,2013-08-23 11:00:00,
2013-08-23 07:05:00,66.4,63.0,30.05,WSW,242,0.0,0.0,89,0.00,NA,NA,-99.99,VWS Version 10.38,2013-08-23 11:05:00,
2013-08-23 07:15:00,66.6,63.5,30.05,WSW,250,0.0,0.0,90,0.00,NA,NA,-99.99,VWS Version 10.38,2013-08-23 11:15:00,
2013-08-23 07:20:00,66.7,63.7,30.05,SW,232,0.0,0.0,90,0.00,NA,NA,-99.99,VWS Version 10.38,2013-08-23 11:20:00,
2013-08-23 07:25:00,66.9,63.9,30.05,WSW,255,0.0,0.0,90,0.00,NA,NA,-99.99,VWS Version 10.38,2013-08-23 11:25:00,
2013-08-23 07:30:00,66.9,63.9,30.05,SW,236,2.7,2.7,90,0.00,NA,NA,-99.99,VWS Version 10.38,2013-08-23 11:30:00,
2013-08-23 07:35:00,67.3,64.2,30.05,SW,220,2.7,2.7,90,0.00,NA,NA,-99.99,VWS Version 10.38,2013-08-23 11:35:00,
2013-08-23 07:45:00,68.0,64.6,30.05,ESE,118,4.0,4.0,89,0.00,NA,NA,-99.99,VWS Version 10.38,2013-08-23 11:45:00,
2013-08-23 07:50:00,68.2,64.8,30.05,SSW,213,0.0,0.0,89,0.00,NA,NA,-99.99,VWS Version 10.38,2013-08-23 11:50:00,
2013-08-23 07:55:00,68.2,64.8,30.05,South,175,0.0,0.0,89,0.00,NA,NA,-99.99,VWS Version 10.38,2013-08-23 11:55:00,
2013-08-23 08:00:00,68.5,65.2,30.05,West,265,0.0,0.0,89,0.00,NA,NA,-99.99,VWS Version 10.38,2013-08-23 12:00:00,
2013-08-23 08:05:00,68.9,65.5,30.05,SSE,168,4.0,4.0,89,0.00,NA,NA,-99.99,VWS Version 10.38,2013-08-23 12:05:00,
2013-08-23 08:10:00,69.3,65.6,30.08,SE,133,0.0,0.0,88,0.00,NA,NA,-99.99,VWS Version 10.38,2013-08-23 12:10:00,
2013-08-23 08:19:00,69.4,65.7,30.08,SSW,197,0.0,0.0,88,0.00,NA,NA,-99.99,VWS Version 10.38,2013-08-23 12:19:00,
2013-08-23 08:24:00,69.4,65.4,30.08,SE,146,5.4,5.4,87,0.00,NA,NA,-99.99,VWS Version 10.38,2013-08-23 12:24:00,
2013-08-23 08:29:00,69.3,64.9,30.08,NNW,333,0.0,0.0,86,0.00,NA,NA,-99.99,VWS Version 10.38,2013-08-23 12:29:00,
2013-08-23 08:34:00,69.1,64.4,30.08,WSW,241,0.0,0.0,85,0.00,NA,NA,-99.99,VWS Version 10.38,2013-08-23 12:34:00,
2013-08-23 08:39:00,69.3,64.2,30.08,South,172,2.7,2.7,84,0.00,NA,NA,-99.99,VWS Version 10.38,2013-08-23 12:39:00,
2013-08-23 08:44:00,69.6,64.2,30.08,SSW,192,3.1,3.1,83,0.00,NA,NA,-99.99,VWS Version 10.38,2013-08-23 12:44:00,
2013-08-23 08:49:00,69.8,63.0,30.08,ENE,60,2.7,2.7,79,0.00,NA,NA,-99.99,VWS Version 10.38,2013-08-23 12:49:00,
2013-08-23 08:54:00,70.2,62.6,30.08,South,178,0.0,0.0,77,0.00,NA,NA,-99.99,VWS Version 10.38,2013-08-23 12:54:00,
2013-08-23 08:59:00,70.5,62.6,30.08,SSW,194,0.0,0.0,76,0.00,NA,NA,-99.99,VWS Version 10.38,2013-08-23 12:59:00,
2013-08-23 09:04:00,70.7,62.4,30.08,SE,130,3.1,3.1,75,0.00,NA,NA,-99.99,VWS Version 10.38,2013-08-23 13:04:00,
2013-08-23 09:09:00,70.5,60.3,30.08,SSW,200,4.0,4.0,70,0.00,NA,NA,-99.99,VWS Version 10.38,2013-08-23 13:09:00,
2013-08-23 09:14:00,70.9,59.4,30.08,WNW,296,4.0,4.0,67,0.00,NA,NA,-99.99,VWS Version 10.38,2013-08-23 13:14:00,
2013-08-23 09:24:00,71.6,53.6,30.08,SSW,199,4.0,4.0,53,0.00,NA,NA,-99.99,VWS Version 10.38,2013-08-23 13:24:00,
2013-08-23 09:29:00,72.0,54.9,30.08,WNW,293,3.6,3.6,55,0.00,NA,NA,-99.99,VWS Version 10.38,2013-08-23 13:29:00,
2013-08-23 09:34:00,72.7,53.0,30.08,WNW,302,3.6,3.6,50,0.00,NA,NA,-99.99,VWS Version 10.38,2013-08-23 13:34:00,
2013-08-23 09:39:00,73.0,53.3,30.08,West,275,3.1,3.1,50,0.00,NA,NA,-99.99,VWS Version 10.38,2013-08-23 13:39:00,
2013-08-23 09:44:00,73.2,51.2,30.08,SSW,195,4.0,4.0,46,0.00,NA,NA,-99.99,VWS Version 10.38,2013-08-23 13:44:00,
2013-08-23 09:54:00,74.7,53.7,30.08,WNW,291,3.6,3.6,48,0.00,NA,NA,-99.99,VWS Version 10.38,2013-08-23 13:54:00,
2013-08-23 09:59:00,76.3,53.4,30.08,ENE,57,4.0,4.0,45,0.00,NA,NA,-99.99,VWS Version 10.38,2013-08-23 13:59:00,
2013-08-23 10:09:00,78.3,49.1,30.08,WNW,288,5.4,5.4,36,0.00,NA,NA,-99.99,VWS Version 10.38,2013-08-23 14:09:00,
2013-08-23 10:14:00,78.3,47.6,30.08,SW,227,3.6,3.6,34,0.00,NA,NA,-99.99,VWS Version 10.38,2013-08-23 14:14:00,
2013-08-23 10:19:00,77.5,46.2,30.08,WNW,292,4.0,4.0,33,0.00,NA,NA,-99.99,VWS Version 10.38,2013-08-23 14:19:00,
2013-08-23 10:29:00,77.4,46.8,30.08,SSE,157,3.1,3.1,34,0.00,NA,NA,-99.99,VWS Version 10.38,2013-08-23 14:29:00,
2013-08-23 10:34:00,76.8,45.6,30.08,West,267,6.3,6.3,33,0.00,NA,NA,-99.99,VWS Version 10.38,2013-08-23 14:34:00,
2013-08-23 10:39:00,77.4,48.3,30.08,WSW,238,5.8,5.8,36,0.00,NA,NA,-99.99,VWS Version 10.38,2013-08-23 14:39:00,
2013-08-23 10:44:00,78.4,48.5,30.08,WSW,247,4.0,4.0,35,0.00,NA,NA,-99.99,VWS Version 10.38,2013-08-23 14:44:00,
2013-08-23 10:49:00,79.7,47.3,30.08,SW,234,5.4,5.4,32,0.00,NA,NA,-99.99,VWS Version 10.38,2013-08-23 14:49:00,
2013-08-23 10:54:00,79.2,46.8,30.08,SW,221,3.1,3.1,32,0.00,NA,NA,-99.99,VWS Version 10.38,2013-08-23 14:54:00,
2013-08-23 11:04:00,77.7,46.3,30.08,SW,223,4.9,4.9,33,0.00,NA,NA,-99.99,VWS Version 10.38,2013-08-23 15:04:00,
2013-08-23 11:09:00,77.2,45.9,30.11,SW,226,4.0,4.0,33,0.00,NA,NA,-99.99,VWS Version 10.38,2013-08-23 15:09:00,
2013-08-23 11:14:00,77.2,46.7,30.11,SE,127,2.7,2.7,34,0.00,NA,NA,-99.99,VWS Version 10.38,2013-08-23 15:14:00,
2013-08-23 11:19:00,77.2,45.9,30.11,WNW,283,4.9,4.9,33,0.00,NA,NA,-99.99,VWS Version 10.38,2013-08-23 15:19:00,
2013-08-23 11:24:00,77.4,46.8,30.08,ESE,118,3.1,3.1,34,0.00,NA,NA,-99.99,VWS Version 10.38,2013-08-23 15:24:00,
2013-08-23 11:29:00,77.9,45.7,30.08,SW,224,8.1,8.1,32,0.00,NA,NA,-99.99,VWS Version 10.38,2013-08-23 15:29:00,
2013-08-23 11:39:00,77.7,45.5,30.08,NNW,338,2.7,2.7,32,0.00,NA,NA,-99.99,VWS Version 10.38,2013-08-23 15:39:00,
2013-08-23 11:44:00,77.9,45.7,30.08,SSW,208,2.2,2.2,32,0.00,NA,NA,-99.99,VWS Version 10.38,2013-08-23 15:44:00,
2013-08-23 11:49:00,78.1,45.8,30.08,SSW,212,5.4,5.4,32,0.00,NA,NA,-99.99,VWS Version 10.38,2013-08-23 15:49:00,
2013-08-23 11:54:00,78.3,46.0,30.08,WNW,300,4.0,4.0,32,0.00,NA,NA,-99.99,VWS Version 10.38,2013-08-23 15:54:00,
2013-08-23 12:04:00,79.0,44.9,30.08,SSE,158,3.6,3.6,30,0.00,NA,NA,-99.99,VWS Version 10.38,2013-08-23 16:04:00,
2013-08-23 12:09:00,78.8,44.8,30.08,NW,326,4.9,4.9,30,0.00,NA,NA,-99.99,VWS Version 10.38,2013-08-23 16:09:00,
2013-08-23 12:14:00,79.0,44.9,30.08,ESE,117,3.1,3.1,30,0.00,NA,NA,-99.99,VWS Version 10.38,2013-08-23 16:14:00,
2013-08-23 12:19:00,79.2,45.1,30.08,North,357,7.6,7.6,30,0.00,NA,NA,-99.99,VWS Version 10.38,2013-08-23 16:19:00,
2013-08-23 12:24:00,79.7,46.4,30.08,WSW,256,5.4,5.4,31,0.00,NA,NA,-99.99,VWS Version 10.38,2013-08-23 16:24:00,
2013-08-23 12:29:00,80.2,45.1,30.08,SSW,212,4.9,4.9,29,0.00,NA,NA,-99.99,VWS Version 10.38,2013-08-23 16:29:00,
2013-08-23 12:39:00,79.5,41.7,30.08,NNW,332,4.9,4.9,26,0.00,NA,NA,-99.99,VWS Version 10.38,2013-08-23 16:39:00,
2013-08-23 12:44:00,79.5,45.4,30.08,NNE,17,2.2,2.2,30,0.00,NA,NA,-99.99,VWS Version 10.38,2013-08-23 16:44:00,
2013-08-23 12:49:00,79.2,43.3,30.08,WSW,251,3.1,3.1,28,0.00,NA,NA,-99.99,VWS Version 10.38,2013-08-23 16:49:00,
2013-08-23 12:54:00,80.4,46.2,30.08,NW,320,3.6,3.6,30,0.00,NA,NA,-99.99,VWS Version 10.38,2013-08-23 16:54:00,
2013-08-23 12:59:00,80.2,41.3,30.08,SW,223,2.7,2.7,25,0.00,NA,NA,-99.99,VWS Version 10.38,2013-08-23 16:59:00,
2013-08-23 13:04:00,79.7,41.8,30.08,SW,221,4.9,4.9,26,0.00,NA,NA,-99.99,VWS Version 10.38,2013-08-23 17:04:00,
2013-08-23 13:14:00,80.4,44.4,30.08,South,177,2.7,2.7,28,0.00,NA,NA,-99.99,VWS Version 10.38,2013-08-23 17:14:00,
2013-08-23 13:19:00,81.9,44.6,30.08,SSE,165,3.6,3.6,27,0.00,NA,NA,-99.99,VWS Version 10.38,2013-08-23 17:19:00,
2013-08-23 13:24:00,82.2,42.9,30.08,South,169,6.3,6.3,25,0.00,NA,NA,-99.99,VWS Version 10.38,2013-08-23 17:24:00,
2013-08-23 13:29:00,82.0,43.8,30.08,West,262,5.4,5.4,26,0.00,NA,NA,-99.99,VWS Version 10.38,2013-08-23 17:29:00,
2013-08-23 13:34:00,82.0,41.7,30.08,WSW,258,8.7,8.7,24,0.00,NA,NA,-99.99,VWS Version 10.38,2013-08-23 17:34:00,
2013-08-23 13:39:00,81.1,42.0,30.11,South,185,3.6,3.6,25,0.00,NA,NA,-99.99,VWS Version 10.38,2013-08-23 17:39:00,
2013-08-23 13:49:00,82.6,43.2,30.11,West,275,6.7,6.7,25,0.00,NA,NA,-99.99,VWS Version 10.38,2013-08-23 17:49:00,
2013-08-23 13:54:00,82.6,41.1,30.11,ENE,62,3.6,3.6,23,0.00,NA,NA,-99.99,VWS Version 10.38,2013-08-23 17:54:00,
2013-08-23 13:59:00,81.9,42.6,30.11,WNW,294,2.7,2.7,25,0.00,NA,NA,-99.99,VWS Version 10.38,2013-08-23 17:59:00,
2013-08-23 14:04:00,82.2,44.0,30.11,WSW,250,7.6,7.6,26,0.00,NA,NA,-99.99,VWS Version 10.38,2013-08-23 18:04:00,
2013-08-23 14:09:00,82.0,41.7,30.11,NNW,337,2.7,2.7,24,0.00,NA,NA,-99.99,VWS Version 10.38,2013-08-23 18:09:00,
2013-08-23 14:14:00,81.5,41.3,30.11,SW,224,5.8,5.8,24,0.00,NA,NA,-99.99,VWS Version 10.38,2013-08-23 18:14:00,
2013-08-23 14:24:00,81.3,44.2,30.11,NW,314,0.0,0.0,27,0.00,NA,NA,-99.99,VWS Version 10.38,2013-08-23 18:24:00,
2013-08-23 14:29:00,82.0,46.7,30.11,SSW,194,3.6,3.6,29,0.00,NA,NA,-99.99,VWS Version 10.38,2013-08-23 18:29:00,
2013-08-23 14:34:00,82.2,40.8,30.11,SSW,212,5.4,5.4,23,0.00,NA,NA,-99.99,VWS Version 10.38,2013-08-23 18:34:00,
2013-08-23 14:39:00,82.2,42.9,30.11,SW,233,7.6,7.6,25,0.00,NA,NA,-99.99,VWS Version 10.38,2013-08-23 18:39:00,
2013-08-23 14:44:00,82.9,40.2,30.11,ESE,114,2.7,2.7,22,0.00,NA,NA,-99.99,VWS Version 10.38,2013-08-23 18:44:00,
2013-08-23 14:49:00,82.9,40.2,30.11,WNW,289,5.4,5.4,22,0.00,NA,NA,-99.99,VWS Version 10.38,2013-08-23 18:49:00,
2013-08-23 14:54:00,83.7,42.0,30.11,WSW,243,5.4,5.4,23,0.00,NA,NA,-99.99,VWS Version 10.38,2013-08-23 18:54:00,
2013-08-23 14:59:00,84.2,42.4,30.11,West,261,5.4,5.4,23,0.00,NA,NA,-99.99,VWS Version 10.38,2013-08-23 18:59:00,
2013-08-23 15:04:00,84.0,42.3,30.11,NE,39,3.6,3.6,23,0.00,NA,NA,-99.99,VWS Version 10.38,2013-08-23 19:04:00,
2013-08-23 15:09:00,84.6,41.6,30.11,West,279,9.6,9.6,22,0.00,NA,NA,-99.99,VWS Version 10.38,2013-08-23 19:09:00,
2013-08-23 15:14:00,83.8,39.8,30.11,NW,305,5.8,5.8,21,0.00,NA,NA,-99.99,VWS Version 10.38,2013-08-23 19:14:00,
2013-08-23 15:19:00,82.6,38.7,30.11,WNW,299,4.0,4.0,21,0.00,NA,NA,-99.99,VWS Version 10.38,2013-08-23 19:19:00,
2013-08-23 15:24:00,82.0,40.6,30.11,West,261,5.8,5.8,23,0.00,NA,NA,-99.99,VWS Version 10.38,2013-08-23 19:24:00,
2013-08-23 15:29:00,81.9,40.5,30.11,SW,220,4.9,4.9,23,0.00,NA,NA,-99.99,VWS Version 10.38,2013-08-23 19:29:00,
2013-08-23 15:39:00,80.8,39.6,30.11,SW,235,4.9,4.9,23,0.00,NA,NA,-99.99,VWS Version 10.38,2013-08-23 19:39:00,
2013-08-23 15:44:00,81.0,41.9,30.11,WNW,301,0.0,0.0,25,0.00,NA,NA,-99.99,VWS Version 10.38,2013-08-23 19:44:00,
2013-08-23 15:49:00,81.1,42.0,30.11,SE,141,2.2,2.2,25,0.00,NA,NA,-99.99,VWS Version 10.38,2013-08-23 19:49:00,
2013-08-23 15:59:00,81.3,44.2,30.11,NE,40,0.0,0.0,27,0.00,NA,NA,-99.99,VWS Version 10.38,2013-08-23 19:59:00,
2013-08-23 16:04:00,81.5,46.2,30.11,SSW,208,3.6,3.6,29,0.00,NA,NA,-99.99,VWS Version 10.38,2013-08-23 20:04:00,
2013-08-23 16:09:00,81.0,42.9,30.11,South,181,0.0,0.0,26,0.00,NA,NA,-99.99,VWS Version 10.38,2013-08-23 20:09:00,
2013-08-23 16:14:00,80.6,42.6,30.11,NE,48,0.0,0.0,26,0.00,NA,NA,-99.99,VWS Version 10.38,2013-08-23 20:14:00,
2013-08-23 16:19:00,80.6,44.5,30.11,ESE,108,0.0,0.0,28,0.00,NA,NA,-99.99,VWS Version 10.38,2013-08-23 20:19:00,
2013-08-23 16:24:00,81.3,47.0,30.11,WSW,239,0.0,0.0,30,0.00,NA,NA,-99.99,VWS Version 10.38,2013-08-23 20:24:00,
2013-08-23 16:29:00,82.0,46.7,30.11,WSW,239,2.7,2.7,29,0.00,NA,NA,-99.99,VWS Version 10.38,2013-08-23 20:29:00,
2013-08-23 16:34:00,82.0,43.8,30.11,West,266,3.6,3.6,26,0.00,NA,NA,-99.99,VWS Version 10.38,2013-08-23 20:34:00,
2013-08-23 16:39:00,81.7,43.5,30.11,NW,322,4.0,4.0,26,0.00,NA,NA,-99.99,VWS Version 10.38,2013-08-23 20:39:00,
2013-08-23 16:44:00,81.5,37.8,30.11,SW,222,5.8,5.8,21,0.00,NA,NA,-99.99,VWS Version 10.38,2013-08-23 20:44:00,
2013-08-23 16:54:00,80.1,39.0,30.11,SW,230,3.6,3.6,23,0.00,NA,NA,-99.99,VWS Version 10.38,2013-08-23 20:54:00,
2013-08-23 16:59:00,79.2,38.2,30.11,WNW,286,0.0,0.0,23,0.00,NA,NA,-99.99,VWS Version 10.38,2013-08-23 20:59:00,
2013-08-23 17:04:00,78.6,39.9,30.11,NE,40,2.7,2.7,25,0.00,NA,NA,-99.99,VWS Version 10.38,2013-08-23 21:04:00,
2013-08-23 17:09:00,78.6,40.9,30.11,East,98,3.6,3.6,26,0.00,NA,NA,-99.99,VWS Version 10.38,2013-08-23 21:09:00,
2013-08-23 17:14:00,79.2,41.4,30.11,South,182,0.0,0.0,26,0.00,NA,NA,-99.99,VWS Version 10.38,2013-08-23 21:14:00,
2013-08-23 17:19:00,79.3,43.4,30.11,West,264,4.0,4.0,28,0.00,NA,NA,-99.99,VWS Version 10.38,2013-08-23 21:19:00,
2013-08-23 17:25:00,78.8,40.0,30.11,West,264,0.0,0.0,25,0.00,NA,NA,-99.99,VWS Version 10.38,2013-08-23 21:25:00,
2013-08-23 17:30:00,78.3,42.5,30.11,WNW,299,0.0,0.0,28,0.00,NA,NA,-99.99,VWS Version 10.38,2013-08-23 21:30:00,
2013-08-23 17:35:00,78.1,44.2,30.11,NE,38,0.0,0.0,30,0.00,NA,NA,-99.99,VWS Version 10.38,2013-08-23 21:35:00,
2013-08-23 17:40:00,77.9,45.7,30.11,SSW,212,0.0,0.0,32,0.00,NA,NA,-99.99,VWS Version 10.38,2013-08-23 21:40:00,
2013-08-23 17:45:00,77.7,45.5,30.11,East,96,0.0,0.0,32,0.00,NA,NA,-99.99,VWS Version 10.38,2013-08-23 21:45:00,
2013-08-23 17:55:00,75.9,49.2,30.11,East,96,0.0,0.0,39,0.00,NA,NA,-99.99,VWS Version 10.38,2013-08-23 21:55:00,
2013-08-23 18:00:00,74.7,48.1,30.11,East,96,0.0,0.0,39,0.00,NA,NA,-99.99,VWS Version 10.38,2013-08-23 22:00:00,
2013-08-23 18:05:00,74.1,50.2,30.11,East,96,0.0,0.0,43,0.00,NA,NA,-99.99,VWS Version 10.38,2013-08-23 22:05:00,
2013-08-23 18:10:00,73.6,51.0,30.11,East,96,0.0,0.0,45,0.00,NA,NA,-99.99,VWS Version 10.38,2013-08-23 22:10:00,
2013-08-23 18:15:00,73.4,50.8,30.11,East,96,0.0,0.0,45,0.00,NA,NA,-99.99,VWS Version 10.38,2013-08-23 22:15:00,
2013-08-23 18:20:00,73.6,53.8,30.11,East,96,0.0,0.0,50,0.00,NA,NA,-99.99,VWS Version 10.38,2013-08-23 22:20:00,
2013-08-23 18:30:00,73.6,52.7,30.11,East,96,0.0,0.0,48,0.00,NA,NA,-99.99,VWS Version 10.38,2013-08-23 22:30:00,
2013-08-23 18:35:00,73.2,52.9,30.11,East,96,0.0,0.0,49,0.00,NA,NA,-99.99,VWS Version 10.38,2013-08-23 22:35:00,
2013-08-23 18:40:00,73.0,53.3,30.14,East,96,0.0,0.0,50,0.00,NA,NA,-99.99,VWS Version 10.38,2013-08-23 22:40:00,
2013-08-23 18:45:00,73.0,53.3,30.14,East,96,0.0,0.0,50,0.00,NA,NA,-99.99,VWS Version 10.38,2013-08-23 22:45:00,
2013-08-23 18:50:00,71.8,53.2,30.14,East,96,0.0,0.0,52,0.00,NA,NA,-99.99,VWS Version 10.38,2013-08-23 22:50:00,
2013-08-23 19:00:00,70.7,54.2,30.14,East,96,0.0,0.0,56,0.00,NA,NA,-99.99,VWS Version 10.38,2013-08-23 23:00:00,
2013-08-23 19:05:00,70.5,55.0,30.14,East,96,0.0,0.0,58,0.00,NA,NA,-99.99,VWS Version 10.38,2013-08-23 23:05:00,
2013-08-23 19:10:00,70.3,55.3,30.14,East,96,0.0,0.0,59,0.00,NA,NA,-99.99,VWS Version 10.38,2013-08-23 23:10:00,
2013-08-23 19:20:00,69.4,55.9,30.14,East,96,0.0,0.0,62,0.00,NA,NA,-99.99,VWS Version 10.38,2013-08-23 23:20:00,
2013-08-23 19:25:00,69.1,56.4,30.14,East,96,0.0,0.0,64,0.00,NA,NA,-99.99,VWS Version 10.38,2013-08-23 23:25:00,
2013-08-23 19:30:00,68.7,56.1,30.14,East,96,0.0,0.0,64,0.00,NA,NA,-99.99,VWS Version 10.38,2013-08-23 23:30:00,
2013-08-23 19:35:00,68.4,55.7,30.14,East,96,0.0,0.0,64,0.00,NA,NA,-99.99,VWS Version 10.38,2013-08-23 23:35:00,
2013-08-23 19:40:00,68.0,55.4,30.14,East,96,0.0,0.0,64,0.00,NA,NA,-99.99,VWS Version 10.38,2013-08-23 23:40:00,
2013-08-23 19:45:00,67.8,55.6,30.14,East,96,0.0,0.0,65,0.00,NA,NA,-99.99,VWS Version 10.38,2013-08-23 23:45:00,
2013-08-23 19:50:00,67.5,55.7,30.14,East,96,0.0,0.0,66,0.00,NA,NA,-99.99,VWS Version 10.38,2013-08-23 23:50:00,
2013-08-23 19:55:00,67.1,55.8,30.17,East,96,0.0,0.0,67,0.00,NA,NA,-99.99,VWS Version 10.38,2013-08-23 23:55:00,
2013-08-23 20:00:00,66.7,55.5,30.17,East,96,0.0,0.0,67,0.00,NA,NA,-99.99,VWS Version 10.38,2013-08-24 00:00:00,
2013-08-23 20:05:00,66.4,55.1,30.17,East,96,0.0,0.0,67,0.00,NA,NA,-99.99,VWS Version 10.38,2013-08-24 00:05:00,
2013-08-23 20:10:00,66.0,55.2,30.17,East,96,0.0,0.0,68,0.00,NA,NA,-99.99,VWS Version 10.38,2013-08-24 00:10:00,
2013-08-23 20:15:00,65.8,55.0,30.17,East,96,0.0,0.0,68,0.00,NA,NA,-99.99,VWS Version 10.38,2013-08-24 00:15:00,
2013-08-23 20:20:00,65.5,54.7,30.17,East,96,0.0,0.0,68,0.00,NA,NA,-99.99,VWS Version 10.38,2013-08-24 00:20:00,
2013-08-23 20:25:00,65.3,54.5,30.17,East,96,0.0,0.0,68,0.00,NA,NA,-99.99,VWS Version 10.38,2013-08-24 00:25:00,
2013-08-23 20:30:00,64.9,54.9,30.17,East,96,0.0,0.0,70,0.00,NA,NA,-99.99,VWS Version 10.38,2013-08-24 00:30:00,
2013-08-23 20:35:00,64.8,55.2,30.17,East,96,0.0,0.0,71,0.00,NA,NA,-99.99,VWS Version 10.38,2013-08-24 00:35:00,
2013-08-23 20:40:00,64.8,55.2,30.20,East,96,0.0,0.0,71,0.00,NA,NA,-99.99,VWS Version 10.38,2013-08-24 00:40:00,
2013-08-23 20:45:00,64.8,55.2,30.20,East,96,0.0,0.0,71,0.00,NA,NA,-99.99,VWS Version 10.38,2013-08-24 00:45:00,
2013-08-23 20:50:00,64.6,54.6,30.20,East,96,0.0,0.0,70,0.00,NA,NA,-99.99,VWS Version 10.38,2013-08-24 00:50:00,
2013-08-23 20:55:00,64.4,54.4,30.20,East,96,0.0,0.0,70,0.00,NA,NA,-99.99,VWS Version 10.38,2013-08-24 00:55:00,
2013-08-23 21:00:00,64.2,54.6,30.20,East,96,0.0,0.0,71,0.00,NA,NA,-99.99,VWS Version 10.38,2013-08-24 01:00:00,
2013-08-23 21:05:00,63.9,54.3,30.20,East,96,0.0,0.0,71,0.00,NA,NA,-99.99,VWS Version 10.38,2013-08-24 01:05:00,
2013-08-23 21:10:00,63.7,54.5,30.20,East,96,0.0,0.0,72,0.00,NA,NA,-99.99,VWS Version 10.38,2013-08-24 01:10:00,
2013-08-23 21:19:00,63.1,54.3,30.20,East,96,0.0,0.0,73,0.00,NA,NA,-99.99,VWS Version 10.38,2013-08-24 01:19:00,
2013-08-23 21:24:00,63.0,54.5,30.20,East,96,0.0,0.0,74,0.00,NA,NA,-99.99,VWS Version 10.38,2013-08-24 01:24:00,
2013-08-23 21:29:00,63.0,54.9,30.20,East,96,0.0,0.0,75,0.00,NA,NA,-99.99,VWS Version 10.38,2013-08-24 01:29:00,
2013-08-23 21:34:00,62.6,54.6,30.20,East,96,0.0,0.0,75,0.00,NA,NA,-99.99,VWS Version 10.38,2013-08-24 01:34:00,
2013-08-23 21:39:00,62.4,54.8,30.20,East,96,0.0,0.0,76,0.00,NA,NA,-99.99,VWS Version 10.38,2013-08-24 01:39:00,
2013-08-23 21:44:00,62.1,54.8,30.20,East,96,0.0,0.0,77,0.00,NA,NA,-99.99,VWS Version 10.38,2013-08-24 01:44:00,
2013-08-23 21:49:00,61.9,55.0,30.20,East,96,0.0,0.0,78,0.00,NA,NA,-99.99,VWS Version 10.38,2013-08-24 01:49:00,
2013-08-23 21:54:00,61.7,54.8,30.20,East,96,0.0,0.0,78,0.00,NA,NA,-99.99,VWS Version 10.38,2013-08-24 01:54:00,
2013-08-23 22:04:00,61.3,54.8,30.20,East,96,0.0,0.0,79,0.00,NA,NA,-99.99,VWS Version 10.38,2013-08-24 02:04:00,
2013-08-23 22:09:00,61.2,54.6,30.23,East,96,0.0,0.0,79,0.00,NA,NA,-99.99,VWS Version 10.38,2013-08-24 02:09:00,
2013-08-23 22:14:00,61.0,54.4,30.23,East,96,0.0,0.0,79,0.00,NA,NA,-99.99,VWS Version 10.38,2013-08-24 02:14:00,
2013-08-23 22:19:00,60.8,54.3,30.23,East,96,0.0,0.0,79,0.00,NA,NA,-99.99,VWS Version 10.38,2013-08-24 02:19:00,
2013-08-23 22:24:00,60.8,54.3,30.23,East,96,0.0,0.0,79,0.00,NA,NA,-99.99,VWS Version 10.38,2013-08-24 02:24:00,
2013-08-23 22:29:00,60.6,54.4,30.23,East,96,0.0,0.0,80,0.00,NA,NA,-99.99,VWS Version 10.38,2013-08-24 02:29:00,
2013-08-23 22:34:00,60.6,54.4,30.23,East,96,0.0,0.0,80,0.00,NA,NA,-99.99,VWS Version 10.38,2013-08-24 02:34:00,
2013-08-23 22:39:00,60.6,54.4,30.23,East,96,0.0,0.0,80,0.00,NA,NA,-99.99,VWS Version 10.38,2013-08-24 02:39:00,
2013-08-23 22:44:00,60.6,54.4,30.23,East,96,0.0,0.0,80,0.00,NA,NA,-99.99,VWS Version 10.38,2013-08-24 02:44:00,
2013-08-23 22:49:00,60.4,54.2,30.23,East,96,0.0,0.0,80,0.00,NA,NA,-99.99,VWS Version 10.38,2013-08-24 02:49:00,
2013-08-23 22:59:00,60.4,54.2,30.23,East,96,0.0,0.0,80,0.00,NA,NA,-99.99,VWS Version 10.38,2013-08-24 02:59:00,
2013-08-23 23:04:00,60.3,54.1,30.23,East,96,0.0,0.0,80,0.00,NA,NA,-99.99,VWS Version 10.38,2013-08-24 03:04:00,
2013-08-23 23:09:00,60.1,53.9,30.23,East,96,0.0,0.0,80,0.00,NA,NA,-99.99,VWS Version 10.38,2013-08-24 03:09:00,
2013-08-23 23:14:00,59.9,53.7,30.23,East,96,0.0,0.0,80,0.00,NA,NA,-99.99,VWS Version 10.38,2013-08-24 03:14:00,
2013-08-23 23:19:00,59.7,53.5,30.23,East,96,0.0,0.0,80,0.00,NA,NA,-99.99,VWS Version 10.38,2013-08-24 03:19:00,
2013-08-23 23:24:00,59.7,53.5,30.23,East,96,0.0,0.0,80,0.00,NA,NA,-99.99,VWS Version 10.38,2013-08-24 03:24:00,
2013-08-23 23:29:00,59.7,53.5,30.23,East,96,0.0,0.0,80,0.00,NA,NA,-99.99,VWS Version 10.38,2013-08-24 03:29:00,
2013-08-23 23:34:00,59.7,53.9,30.23,East,96,0.0,0.0,81,0.00,NA,NA,-99.99,VWS Version 10.38,2013-08-24 03:34:00,
2013-08-23 23:39:00,59.5,53.7,30.26,East,96,0.0,0.0,81,0.00,NA,NA,-99.99,VWS Version 10.38,2013-08-24 03:39:00,
2013-08-23 23:44:00,59.5,53.7,30.26,East,96,0.0,0.0,81,0.00,NA,NA,-99.99,VWS Version 10.38,2013-08-24 03:44:00,
2013-08-23 23:54:00,59.5,53.7,30.26,East,96,0.0,0.0,81,0.00,NA,NA,-99.99,VWS Version 10.38,2013-08-24 03:54:00,
2013-08-23 23:59:00,59.5,53.7,30.26,East,96,0.0,0.0,81,0.00,NA,NA,-99.99,VWS Version 10.38,2013-08-24 03:59:00,